sensor_id;sensor_type;location;lat;lon;timestamp;P1;durP1;ratioP1;P2;durP2;ratioP2
76405;SDS011;65234;50.044;19.258;2023-03-01T00:01:29;43.67;;;40.20;;
76405;SDS011;65234;50.044;19.258;2023-03-01T00:03:56;43.53;;;39.17;;
76405;SDS011;65234;50.044;19.258;2023-03-01T00:06:22;45.57;;;41.30;;
76405;SDS011;65234;50.044;19.258;2023-03-01T00:08:49;64.07;;;41.93;;
76405;SDS011;65234;50.044;19.258;2023-03-01T00:11:16;45.40;;;40.97;;
76405;SDS011;65234;50.044;19.258;2023-03-01T00:13:46;43.87;;;37.33;;
76405;SDS011;65234;50.044;19.258;2023-03-01T00:16:14;59.30;;;37.80;;
76405;SDS011;65234;50.044;19.258;2023-03-01T00:18:42;43.60;;;39.23;;
76405;SDS011;65234;50.044;19.258;2023-03-01T00:21:08;39.97;;;36.23;;
76405;SDS011;65234;50.044;19.258;2023-03-01T00:23:34;44.40;;;40.23;;
76405;SDS011;65234;50.044;19.258;2023-03-01T00:26:00;47.87;;;41.87;;
76405;SDS011;65234;50.044;19.258;2023-03-01T00:28:26;41.37;;;38.03;;
76405;SDS011;65234;50.044;19.258;2023-03-01T00:30:53;39.83;;;36.63;;
76405;SDS011;65234;50.044;19.258;2023-03-01T00:33:19;39.73;;;36.23;;
76405;SDS011;65234;50.044;19.258;2023-03-01T00:35:45;40.43;;;36.47;;
76405;SDS011;65234;50.044;19.258;2023-03-01T00:38:10;38.20;;;34.73;;
76405;SDS011;65234;50.044;19.258;2023-03-01T00:40:36;38.37;;;34.80;;
76405;SDS011;65234;50.044;19.258;2023-03-01T00:43:02;38.10;;;35.13;;
76405;SDS011;65234;50.044;19.258;2023-03-01T00:45:28;38.60;;;35.97;;
76405;SDS011;65234;50.044;19.258;2023-03-01T00:47:56;50.90;;;38.50;;
76405;SDS011;65234;50.044;19.258;2023-03-01T00:50:21;37.43;;;33.73;;
76405;SDS011;65234;50.044;19.258;2023-03-01T00:52:51;39.80;;;36.27;;
76405;SDS011;65234;50.044;19.258;2023-03-01T00:55:18;42.40;;;38.67;;
76405;SDS011;65234;50.044;19.258;2023-03-01T00:57:43;39.43;;;34.33;;
76405;SDS011;65234;50.044;19.258;2023-03-01T01:00:10;41.07;;;37.57;;
76405;SDS011;65234;50.044;19.258;2023-03-01T01:02:36;39.37;;;36.23;;
76405;SDS011;65234;50.044;19.258;2023-03-01T01:05:04;36.80;;;33.77;;
76405;SDS011;65234;50.044;19.258;2023-03-01T01:07:30;37.70;;;34.70;;
76405;SDS011;65234;50.044;19.258;2023-03-01T01:09:56;33.57;;;31.10;;
76405;SDS011;65234;50.044;19.258;2023-03-01T01:12:22;34.57;;;31.90;;
76405;SDS011;65234;50.044;19.258;2023-03-01T01:14:47;38.83;;;35.43;;
76405;SDS011;65234;50.044;19.258;2023-03-01T01:17:13;37.60;;;34.17;;
76405;SDS011;65234;50.044;19.258;2023-03-01T01:19:39;42.50;;;37.83;;
76405;SDS011;65234;50.044;19.258;2023-03-01T01:22:06;46.43;;;40.30;;
76405;SDS011;65234;50.044;19.258;2023-03-01T01:24:32;39.10;;;35.33;;
76405;SDS011;65234;50.044;19.258;2023-03-01T01:26:58;41.23;;;36.23;;
76405;SDS011;65234;50.044;19.258;2023-03-01T01:29:23;36.37;;;33.47;;
76405;SDS011;65234;50.044;19.258;2023-03-01T01:31:49;43.83;;;37.20;;
76405;SDS011;65234;50.044;19.258;2023-03-01T01:34:15;35.40;;;31.83;;
76405;SDS011;65234;50.044;19.258;2023-03-01T01:36:43;42.57;;;38.73;;
76405;SDS011;65234;50.044;19.258;2023-03-01T01:39:14;37.00;;;34.20;;
76405;SDS011;65234;50.044;19.258;2023-03-01T01:41:40;60.97;;;37.27;;
76405;SDS011;65234;50.044;19.258;2023-03-01T01:44:11;37.63;;;34.03;;
76405;SDS011;65234;50.044;19.258;2023-03-01T01:46:40;39.67;;;36.03;;
76405;SDS011;65234;50.044;19.258;2023-03-01T01:49:10;41.07;;;36.47;;
76405;SDS011;65234;50.044;19.258;2023-03-01T01:51:47;36.97;;;33.80;;
76405;SDS011;65234;50.044;19.258;2023-03-01T01:54:18;36.07;;;33.57;;
76405;SDS011;65234;50.044;19.258;2023-03-01T01:56:49;38.97;;;35.73;;
76405;SDS011;65234;50.044;19.258;2023-03-01T01:59:20;32.80;;;30.30;;
76405;SDS011;65234;50.044;19.258;2023-03-01T02:01:46;34.33;;;31.93;;
76405;SDS011;65234;50.044;19.258;2023-03-01T02:04:12;39.40;;;35.77;;
76405;SDS011;65234;50.044;19.258;2023-03-01T02:06:39;35.37;;;32.90;;
76405;SDS011;65234;50.044;19.258;2023-03-01T02:09:12;37.15;;;34.45;;
76405;SDS011;65234;50.044;19.258;2023-03-01T02:11:42;37.07;;;34.07;;
76405;SDS011;65234;50.044;19.258;2023-03-01T02:14:09;41.53;;;37.17;;
76405;SDS011;65234;50.044;19.258;2023-03-01T02:16:35;39.63;;;36.50;;
76405;SDS011;65234;50.044;19.258;2023-03-01T02:19:01;38.90;;;35.77;;
76405;SDS011;65234;50.044;19.258;2023-03-01T02:21:33;40.77;;;36.93;;
76405;SDS011;65234;50.044;19.258;2023-03-01T02:24:05;34.47;;;31.90;;
76405;SDS011;65234;50.044;19.258;2023-03-01T02:26:48;39.90;;;36.93;;
76405;SDS011;65234;50.044;19.258;2023-03-01T02:29:18;33.37;;;30.53;;
76405;SDS011;65234;50.044;19.258;2023-03-01T02:31:44;38.03;;;34.60;;
76405;SDS011;65234;50.044;19.258;2023-03-01T02:34:11;36.47;;;32.93;;
76405;SDS011;65234;50.044;19.258;2023-03-01T02:36:39;45.87;;;41.57;;
76405;SDS011;65234;50.044;19.258;2023-03-01T02:39:08;37.93;;;34.80;;
76405;SDS011;65234;50.044;19.258;2023-03-01T02:41:38;34.97;;;32.70;;
76405;SDS011;65234;50.044;19.258;2023-03-01T02:44:06;42.13;;;34.97;;
76405;SDS011;65234;50.044;19.258;2023-03-01T02:46:33;45.03;;;40.47;;
76405;SDS011;65234;50.044;19.258;2023-03-01T02:48:59;40.53;;;36.67;;
76405;SDS011;65234;50.044;19.258;2023-03-01T02:51:39;41.33;;;37.10;;
76405;SDS011;65234;50.044;19.258;2023-03-01T02:54:12;46.90;;;41.27;;
76405;SDS011;65234;50.044;19.258;2023-03-01T02:56:44;40.33;;;36.73;;
76405;SDS011;65234;50.044;19.258;2023-03-01T02:59:11;44.07;;;39.87;;
76405;SDS011;65234;50.044;19.258;2023-03-01T03:01:38;39.63;;;35.83;;
76405;SDS011;65234;50.044;19.258;2023-03-01T03:04:04;42.93;;;38.57;;
76405;SDS011;65234;50.044;19.258;2023-03-01T03:06:31;47.23;;;39.57;;
76405;SDS011;65234;50.044;19.258;2023-03-01T03:08:57;42.50;;;39.23;;
76405;SDS011;65234;50.044;19.258;2023-03-01T03:11:22;43.20;;;39.50;;
76405;SDS011;65234;50.044;19.258;2023-03-01T03:13:48;48.57;;;40.77;;
76405;SDS011;65234;50.044;19.258;2023-03-01T03:16:14;41.70;;;37.77;;
76405;SDS011;65234;50.044;19.258;2023-03-01T03:18:41;42.67;;;38.33;;
76405;SDS011;65234;50.044;19.258;2023-03-01T03:21:07;40.27;;;36.70;;
76405;SDS011;65234;50.044;19.258;2023-03-01T03:23:33;44.27;;;39.73;;
76405;SDS011;65234;50.044;19.258;2023-03-01T03:25:59;44.50;;;40.33;;
76405;SDS011;65234;50.044;19.258;2023-03-01T03:28:25;45.13;;;40.80;;
76405;SDS011;65234;50.044;19.258;2023-03-01T03:30:50;55.90;;;41.93;;
76405;SDS011;65234;50.044;19.258;2023-03-01T03:33:16;40.37;;;37.00;;
76405;SDS011;65234;50.044;19.258;2023-03-01T03:35:44;40.20;;;36.90;;
76405;SDS011;65234;50.044;19.258;2023-03-01T03:38:11;43.67;;;39.60;;
76405;SDS011;65234;50.044;19.258;2023-03-01T03:40:39;39.90;;;36.67;;
76405;SDS011;65234;50.044;19.258;2023-03-01T03:43:07;40.43;;;36.87;;
76405;SDS011;65234;50.044;19.258;2023-03-01T03:45:35;39.23;;;36.13;;
76405;SDS011;65234;50.044;19.258;2023-03-01T03:48:02;40.17;;;36.70;;
76405;SDS011;65234;50.044;19.258;2023-03-01T03:50:29;36.60;;;33.53;;
76405;SDS011;65234;50.044;19.258;2023-03-01T03:52:56;39.93;;;35.70;;
76405;SDS011;65234;50.044;19.258;2023-03-01T03:55:25;37.73;;;35.17;;
76405;SDS011;65234;50.044;19.258;2023-03-01T03:57:51;36.87;;;34.17;;
76405;SDS011;65234;50.044;19.258;2023-03-01T04:00:18;42.80;;;35.47;;
76405;SDS011;65234;50.044;19.258;2023-03-01T04:02:45;43.43;;;38.60;;
76405;SDS011;65234;50.044;19.258;2023-03-01T04:05:13;39.03;;;33.13;;
76405;SDS011;65234;50.044;19.258;2023-03-01T04:07:41;36.60;;;33.63;;
76405;SDS011;65234;50.044;19.258;2023-03-01T04:10:13;36.20;;;32.87;;
76405;SDS011;65234;50.044;19.258;2023-03-01T04:12:40;34.10;;;32.20;;
76405;SDS011;65234;50.044;19.258;2023-03-01T04:15:06;38.73;;;34.97;;
76405;SDS011;65234;50.044;19.258;2023-03-01T04:17:32;34.40;;;31.77;;
76405;SDS011;65234;50.044;19.258;2023-03-01T04:19:58;41.50;;;37.10;;
76405;SDS011;65234;50.044;19.258;2023-03-01T04:22:24;39.77;;;37.00;;
76405;SDS011;65234;50.044;19.258;2023-03-01T04:24:50;38.77;;;35.27;;
76405;SDS011;65234;50.044;19.258;2023-03-01T04:27:17;33.30;;;30.90;;
76405;SDS011;65234;50.044;19.258;2023-03-01T04:29:43;40.33;;;31.17;;
76405;SDS011;65234;50.044;19.258;2023-03-01T04:32:08;33.57;;;30.67;;
76405;SDS011;65234;50.044;19.258;2023-03-01T04:34:34;40.90;;;36.70;;
76405;SDS011;65234;50.044;19.258;2023-03-01T04:37:00;36.40;;;34.00;;
76405;SDS011;65234;50.044;19.258;2023-03-01T04:39:26;34.27;;;32.20;;
76405;SDS011;65234;50.044;19.258;2023-03-01T04:41:51;38.37;;;35.07;;
76405;SDS011;65234;50.044;19.258;2023-03-01T04:44:18;39.47;;;35.63;;
76405;SDS011;65234;50.044;19.258;2023-03-01T04:46:44;41.33;;;37.33;;
76405;SDS011;65234;50.044;19.258;2023-03-01T04:49:10;35.93;;;33.53;;
76405;SDS011;65234;50.044;19.258;2023-03-01T04:51:35;33.40;;;30.87;;
76405;SDS011;65234;50.044;19.258;2023-03-01T04:54:01;31.20;;;29.00;;
76405;SDS011;65234;50.044;19.258;2023-03-01T04:56:27;36.47;;;33.73;;
76405;SDS011;65234;50.044;19.258;2023-03-01T04:58:53;34.37;;;31.83;;
76405;SDS011;65234;50.044;19.258;2023-03-01T05:01:20;33.50;;;31.03;;
76405;SDS011;65234;50.044;19.258;2023-03-01T05:03:47;38.80;;;32.77;;
76405;SDS011;65234;50.044;19.258;2023-03-01T05:06:14;36.97;;;34.37;;
76405;SDS011;65234;50.044;19.258;2023-03-01T05:08:40;34.13;;;31.53;;
76405;SDS011;65234;50.044;19.258;2023-03-01T05:11:06;35.83;;;32.80;;
76405;SDS011;65234;50.044;19.258;2023-03-01T05:13:33;34.40;;;32.23;;
76405;SDS011;65234;50.044;19.258;2023-03-01T05:15:59;34.13;;;31.00;;
76405;SDS011;65234;50.044;19.258;2023-03-01T05:18:28;35.13;;;31.90;;
76405;SDS011;65234;50.044;19.258;2023-03-01T05:20:55;36.93;;;34.00;;
76405;SDS011;65234;50.044;19.258;2023-03-01T05:23:26;35.60;;;32.90;;
76405;SDS011;65234;50.044;19.258;2023-03-01T05:25:52;31.63;;;29.43;;
76405;SDS011;65234;50.044;19.258;2023-03-01T05:28:18;37.97;;;34.63;;
76405;SDS011;65234;50.044;19.258;2023-03-01T05:30:45;36.03;;;32.07;;
76405;SDS011;65234;50.044;19.258;2023-03-01T05:33:11;35.73;;;33.13;;
76405;SDS011;65234;50.044;19.258;2023-03-01T05:35:38;32.80;;;29.77;;
76405;SDS011;65234;50.044;19.258;2023-03-01T05:38:04;33.00;;;30.90;;
76405;SDS011;65234;50.044;19.258;2023-03-01T05:40:32;34.53;;;32.07;;
76405;SDS011;65234;50.044;19.258;2023-03-01T05:42:59;39.63;;;36.03;;
76405;SDS011;65234;50.044;19.258;2023-03-01T05:45:25;39.50;;;36.13;;
76405;SDS011;65234;50.044;19.258;2023-03-01T05:47:52;35.70;;;32.87;;
76405;SDS011;65234;50.044;19.258;2023-03-01T05:50:19;36.43;;;33.53;;
76405;SDS011;65234;50.044;19.258;2023-03-01T05:52:48;37.83;;;34.53;;
76405;SDS011;65234;50.044;19.258;2023-03-01T05:55:15;32.97;;;30.53;;
76405;SDS011;65234;50.044;19.258;2023-03-01T05:57:42;37.73;;;33.77;;
76405;SDS011;65234;50.044;19.258;2023-03-01T06:00:08;37.10;;;33.33;;
76405;SDS011;65234;50.044;19.258;2023-03-01T06:02:36;41.17;;;36.90;;
76405;SDS011;65234;50.044;19.258;2023-03-01T06:05:01;35.53;;;32.30;;
76405;SDS011;65234;50.044;19.258;2023-03-01T06:07:27;38.47;;;35.27;;
76405;SDS011;65234;50.044;19.258;2023-03-01T06:09:54;39.87;;;35.97;;
76405;SDS011;65234;50.044;19.258;2023-03-01T06:12:20;39.20;;;35.90;;
76405;SDS011;65234;50.044;19.258;2023-03-01T06:14:46;34.70;;;32.30;;
76405;SDS011;65234;50.044;19.258;2023-03-01T06:17:12;38.03;;;35.07;;
76405;SDS011;65234;50.044;19.258;2023-03-01T06:19:37;41.07;;;37.40;;
76405;SDS011;65234;50.044;19.258;2023-03-01T06:22:04;36.17;;;33.37;;
76405;SDS011;65234;50.044;19.258;2023-03-01T06:24:29;44.63;;;40.70;;
76405;SDS011;65234;50.044;19.258;2023-03-01T06:26:56;50.37;;;45.47;;
76405;SDS011;65234;50.044;19.258;2023-03-01T06:29:22;40.10;;;36.27;;
76405;SDS011;65234;50.044;19.258;2023-03-01T06:31:48;39.77;;;35.87;;
76405;SDS011;65234;50.044;19.258;2023-03-01T06:34:14;39.03;;;35.90;;
76405;SDS011;65234;50.044;19.258;2023-03-01T06:36:40;37.50;;;34.67;;
76405;SDS011;65234;50.044;19.258;2023-03-01T06:39:05;39.93;;;36.67;;
76405;SDS011;65234;50.044;19.258;2023-03-01T06:41:31;40.63;;;37.03;;
76405;SDS011;65234;50.044;19.258;2023-03-01T06:43:59;44.23;;;39.47;;
76405;SDS011;65234;50.044;19.258;2023-03-01T06:46:25;41.93;;;38.10;;
76405;SDS011;65234;50.044;19.258;2023-03-01T06:48:51;49.70;;;38.93;;
76405;SDS011;65234;50.044;19.258;2023-03-01T06:51:16;41.77;;;37.07;;
76405;SDS011;65234;50.044;19.258;2023-03-01T06:53:42;43.63;;;39.03;;
76405;SDS011;65234;50.044;19.258;2023-03-01T06:56:08;43.53;;;39.43;;
76405;SDS011;65234;50.044;19.258;2023-03-01T06:58:33;46.47;;;42.13;;
76405;SDS011;65234;50.044;19.258;2023-03-01T07:01:01;46.80;;;41.83;;
76405;SDS011;65234;50.044;19.258;2023-03-01T07:03:30;45.53;;;39.07;;
76405;SDS011;65234;50.044;19.258;2023-03-01T07:05:56;44.03;;;40.77;;
76405;SDS011;65234;50.044;19.258;2023-03-01T07:08:22;43.13;;;39.53;;
76405;SDS011;65234;50.044;19.258;2023-03-01T07:10:48;48.23;;;40.47;;
76405;SDS011;65234;50.044;19.258;2023-03-01T07:13:13;43.07;;;39.03;;
76405;SDS011;65234;50.044;19.258;2023-03-01T07:15:39;53.70;;;41.33;;
76405;SDS011;65234;50.044;19.258;2023-03-01T07:18:06;44.33;;;40.40;;
76405;SDS011;65234;50.044;19.258;2023-03-01T07:20:32;52.37;;;44.87;;
76405;SDS011;65234;50.044;19.258;2023-03-01T07:22:58;43.97;;;39.60;;
76405;SDS011;65234;50.044;19.258;2023-03-01T07:25:24;40.23;;;36.17;;
76405;SDS011;65234;50.044;19.258;2023-03-01T07:27:50;42.80;;;39.30;;
76405;SDS011;65234;50.044;19.258;2023-03-01T07:30:16;39.77;;;36.60;;
76405;SDS011;65234;50.044;19.258;2023-03-01T07:32:42;44.50;;;39.80;;
76405;SDS011;65234;50.044;19.258;2023-03-01T07:35:09;47.93;;;40.10;;
76405;SDS011;65234;50.044;19.258;2023-03-01T07:37:35;41.80;;;38.53;;
76405;SDS011;65234;50.044;19.258;2023-03-01T07:40:01;42.07;;;38.20;;
76405;SDS011;65234;50.044;19.258;2023-03-01T07:42:27;43.00;;;39.10;;
76405;SDS011;65234;50.044;19.258;2023-03-01T07:44:53;55.23;;;42.17;;
76405;SDS011;65234;50.044;19.258;2023-03-01T07:47:18;46.87;;;42.30;;
76405;SDS011;65234;50.044;19.258;2023-03-01T07:49:44;40.53;;;36.50;;
76405;SDS011;65234;50.044;19.258;2023-03-01T07:52:11;40.83;;;37.17;;
76405;SDS011;65234;50.044;19.258;2023-03-01T07:54:37;47.80;;;40.73;;
76405;SDS011;65234;50.044;19.258;2023-03-01T07:57:03;43.93;;;39.93;;
76405;SDS011;65234;50.044;19.258;2023-03-01T07:59:29;44.37;;;39.97;;
76405;SDS011;65234;50.044;19.258;2023-03-01T08:01:54;45.73;;;41.83;;
76405;SDS011;65234;50.044;19.258;2023-03-01T08:04:20;37.50;;;34.80;;
76405;SDS011;65234;50.044;19.258;2023-03-01T08:06:46;42.53;;;39.03;;
76405;SDS011;65234;50.044;19.258;2023-03-01T08:09:14;45.10;;;40.93;;
76405;SDS011;65234;50.044;19.258;2023-03-01T08:11:39;41.80;;;38.63;;
76405;SDS011;65234;50.044;19.258;2023-03-01T08:14:05;41.53;;;38.00;;
76405;SDS011;65234;50.044;19.258;2023-03-01T08:16:31;44.63;;;41.33;;
76405;SDS011;65234;50.044;19.258;2023-03-01T08:18:57;43.93;;;40.23;;
76405;SDS011;65234;50.044;19.258;2023-03-01T08:21:22;44.53;;;40.73;;
76405;SDS011;65234;50.044;19.258;2023-03-01T08:23:49;43.47;;;40.03;;
76405;SDS011;65234;50.044;19.258;2023-03-01T08:26:17;38.93;;;35.80;;
76405;SDS011;65234;50.044;19.258;2023-03-01T08:28:44;36.67;;;34.25;;
76405;SDS011;65234;50.044;19.258;2023-03-01T08:31:14;44.67;;;40.10;;
76405;SDS011;65234;50.044;19.258;2023-03-01T08:33:40;48.43;;;43.90;;
76405;SDS011;65234;50.044;19.258;2023-03-01T08:36:06;46.10;;;41.60;;
76405;SDS011;65234;50.044;19.258;2023-03-01T08:38:32;40.83;;;37.77;;
76405;SDS011;65234;50.044;19.258;2023-03-01T08:40:59;45.40;;;40.70;;
76405;SDS011;65234;50.044;19.258;2023-03-01T08:43:27;46.42;;;42.78;;
76405;SDS011;65234;50.044;19.258;2023-03-01T08:45:52;38.05;;;35.60;;
76405;SDS011;65234;50.044;19.258;2023-03-01T08:48:18;63.03;;;42.63;;
76405;SDS011;65234;50.044;19.258;2023-03-01T08:50:44;45.20;;;41.40;;
76405;SDS011;65234;50.044;19.258;2023-03-01T08:53:10;45.58;;;41.60;;
76405;SDS011;65234;50.044;19.258;2023-03-01T08:55:35;45.58;;;42.03;;
76405;SDS011;65234;50.044;19.258;2023-03-01T08:58:01;44.90;;;41.83;;
76405;SDS011;65234;50.044;19.258;2023-03-01T09:00:34;43.17;;;40.55;;
76405;SDS011;65234;50.044;19.258;2023-03-01T09:03:00;44.13;;;40.78;;
76405;SDS011;65234;50.044;19.258;2023-03-01T09:05:26;42.53;;;38.38;;
76405;SDS011;65234;50.044;19.258;2023-03-01T09:07:52;39.63;;;36.35;;
76405;SDS011;65234;50.044;19.258;2023-03-01T09:10:17;42.03;;;39.03;;
76405;SDS011;65234;50.044;19.258;2023-03-01T09:12:43;44.67;;;40.50;;
76405;SDS011;65234;50.044;19.258;2023-03-01T09:15:09;42.22;;;39.00;;
76405;SDS011;65234;50.044;19.258;2023-03-01T09:17:36;39.13;;;36.90;;
76405;SDS011;65234;50.044;19.258;2023-03-01T09:20:02;39.60;;;37.05;;
76405;SDS011;65234;50.044;19.258;2023-03-01T09:22:29;43.47;;;37.70;;
76405;SDS011;65234;50.044;19.258;2023-03-01T09:24:54;41.67;;;38.70;;
76405;SDS011;65234;50.044;19.258;2023-03-01T09:27:20;42.35;;;38.97;;
76405;SDS011;65234;50.044;19.258;2023-03-01T09:29:46;39.78;;;37.30;;
76405;SDS011;65234;50.044;19.258;2023-03-01T09:32:12;40.38;;;37.90;;
76405;SDS011;65234;50.044;19.258;2023-03-01T09:34:39;42.25;;;39.08;;
76405;SDS011;65234;50.044;19.258;2023-03-01T09:37:05;40.60;;;38.25;;
76405;SDS011;65234;50.044;19.258;2023-03-01T09:39:30;41.30;;;38.17;;
76405;SDS011;65234;50.044;19.258;2023-03-01T09:41:57;44.45;;;40.53;;
76405;SDS011;65234;50.044;19.258;2023-03-01T09:44:29;39.65;;;37.58;;
76405;SDS011;65234;50.044;19.258;2023-03-01T09:47:01;44.70;;;40.78;;
76405;SDS011;65234;50.044;19.258;2023-03-01T09:49:29;45.83;;;42.88;;
76405;SDS011;65234;50.044;19.258;2023-03-01T09:52:00;46.33;;;42.60;;
76405;SDS011;65234;50.044;19.258;2023-03-01T09:54:28;48.80;;;45.22;;
76405;SDS011;65234;50.044;19.258;2023-03-01T09:57:05;45.78;;;42.15;;
76405;SDS011;65234;50.044;19.258;2023-03-01T09:59:39;46.50;;;42.90;;
76405;SDS011;65234;50.044;19.258;2023-03-01T10:02:26;44.85;;;42.10;;
76405;SDS011;65234;50.044;19.258;2023-03-01T10:04:57;47.88;;;44.25;;
76405;SDS011;65234;50.044;19.258;2023-03-01T10:07:35;49.03;;;45.88;;
76405;SDS011;65234;50.044;19.258;2023-03-01T10:10:11;43.83;;;41.55;;
76405;SDS011;65234;50.044;19.258;2023-03-01T10:12:47;47.97;;;44.75;;
76405;SDS011;65234;50.044;19.258;2023-03-01T10:15:13;53.35;;;48.75;;
76405;SDS011;65234;50.044;19.258;2023-03-01T10:17:44;51.25;;;46.90;;
76405;SDS011;65234;50.044;19.258;2023-03-01T10:20:16;47.75;;;44.90;;
76405;SDS011;65234;50.044;19.258;2023-03-01T10:22:46;49.55;;;46.13;;
76405;SDS011;65234;50.044;19.258;2023-03-01T10:25:14;52.00;;;47.85;;
76405;SDS011;65234;50.044;19.258;2023-03-01T10:27:42;50.28;;;46.53;;
76405;SDS011;65234;50.044;19.258;2023-03-01T10:30:19;54.20;;;49.72;;
76405;SDS011;65234;50.044;19.258;2023-03-01T10:32:47;51.30;;;46.78;;
76405;SDS011;65234;50.044;19.258;2023-03-01T10:35:17;53.35;;;49.10;;
76405;SDS011;65234;50.044;19.258;2023-03-01T10:37:58;53.50;;;49.58;;
76405;SDS011;65234;50.044;19.258;2023-03-01T10:40:28;51.92;;;48.22;;
76405;SDS011;65234;50.044;19.258;2023-03-01T10:42:54;51.05;;;46.78;;
76405;SDS011;65234;50.044;19.258;2023-03-01T10:45:30;54.80;;;50.92;;
76405;SDS011;65234;50.044;19.258;2023-03-01T10:48:04;55.40;;;50.17;;
76405;SDS011;65234;50.044;19.258;2023-03-01T10:50:34;51.15;;;47.25;;
76405;SDS011;65234;50.044;19.258;2023-03-01T10:53:02;54.08;;;50.03;;
76405;SDS011;65234;50.044;19.258;2023-03-01T10:55:30;56.35;;;51.55;;
76405;SDS011;65234;50.044;19.258;2023-03-01T10:58:07;56.55;;;51.83;;
76405;SDS011;65234;50.044;19.258;2023-03-01T11:00:45;56.90;;;52.72;;
76405;SDS011;65234;50.044;19.258;2023-03-01T11:03:14;57.15;;;52.75;;
76405;SDS011;65234;50.044;19.258;2023-03-01T11:05:52;55.00;;;51.42;;
76405;SDS011;65234;50.044;19.258;2023-03-01T11:08:37;54.95;;;51.03;;
76405;SDS011;65234;50.044;19.258;2023-03-01T11:13:55;55.42;;;51.30;;
76405;SDS011;65234;50.044;19.258;2023-03-01T11:16:27;58.92;;;54.47;;
76405;SDS011;65234;50.044;19.258;2023-03-01T11:18:57;56.47;;;52.58;;
76405;SDS011;65234;50.044;19.258;2023-03-01T11:21:24;57.58;;;53.42;;
76405;SDS011;65234;50.044;19.258;2023-03-01T11:23:53;57.90;;;53.80;;
76405;SDS011;65234;50.044;19.258;2023-03-01T11:26:19;56.85;;;52.17;;
76405;SDS011;65234;50.044;19.258;2023-03-01T11:28:47;57.22;;;53.28;;
76405;SDS011;65234;50.044;19.258;2023-03-01T11:31:16;56.05;;;52.40;;
76405;SDS011;65234;50.044;19.258;2023-03-01T11:33:45;58.08;;;53.83;;
76405;SDS011;65234;50.044;19.258;2023-03-01T11:36:27;55.28;;;51.30;;
76405;SDS011;65234;50.044;19.258;2023-03-01T11:39:14;53.15;;;49.55;;
76405;SDS011;65234;50.044;19.258;2023-03-01T11:41:46;57.42;;;53.22;;
76405;SDS011;65234;50.044;19.258;2023-03-01T11:44:18;58.30;;;53.90;;
76405;SDS011;65234;50.044;19.258;2023-03-01T11:47:00;51.00;;;48.13;;
76405;SDS011;65234;50.044;19.258;2023-03-01T11:49:40;53.33;;;49.97;;
76405;SDS011;65234;50.044;19.258;2023-03-01T11:52:17;54.17;;;50.72;;
76405;SDS011;65234;50.044;19.258;2023-03-01T11:54:55;57.72;;;54.22;;
76405;SDS011;65234;50.044;19.258;2023-03-01T11:57:43;65.25;;;56.92;;
76405;SDS011;65234;50.044;19.258;2023-03-01T12:00:38;57.92;;;53.95;;
76405;SDS011;65234;50.044;19.258;2023-03-01T12:06:32;54.90;;;51.35;;
76405;SDS011;65234;50.044;19.258;2023-03-01T12:09:09;55.95;;;52.83;;
76405;SDS011;65234;50.044;19.258;2023-03-01T12:11:52;59.35;;;55.35;;
76405;SDS011;65234;50.044;19.258;2023-03-01T12:14:30;58.92;;;54.78;;
76405;SDS011;65234;50.044;19.258;2023-03-01T12:17:10;61.85;;;57.03;;
76405;SDS011;65234;50.044;19.258;2023-03-01T12:19:46;61.25;;;57.22;;
76405;SDS011;65234;50.044;19.258;2023-03-01T12:22:29;66.28;;;60.78;;
76405;SDS011;65234;50.044;19.258;2023-03-01T12:25:05;61.25;;;56.25;;
76405;SDS011;65234;50.044;19.258;2023-03-01T12:27:46;59.78;;;54.78;;
76405;SDS011;65234;50.044;19.258;2023-03-01T12:30:24;61.10;;;57.13;;
76405;SDS011;65234;50.044;19.258;2023-03-01T12:33:01;65.70;;;60.58;;
76405;SDS011;65234;50.044;19.258;2023-03-01T12:35:45;63.55;;;59.22;;
76405;SDS011;65234;50.044;19.258;2023-03-01T12:38:23;62.80;;;58.00;;
76405;SDS011;65234;50.044;19.258;2023-03-01T12:44:09;60.38;;;56.20;;
76405;SDS011;65234;50.044;19.258;2023-03-01T12:46:44;64.05;;;59.65;;
76405;SDS011;65234;50.044;19.258;2023-03-01T12:49:23;62.47;;;58.47;;
76405;SDS011;65234;50.044;19.258;2023-03-01T12:51:54;65.72;;;61.65;;
76405;SDS011;65234;50.044;19.258;2023-03-01T12:54:26;64.63;;;60.90;;
76405;SDS011;65234;50.044;19.258;2023-03-01T12:56:52;64.30;;;60.20;;
76405;SDS011;65234;50.044;19.258;2023-03-01T12:59:22;63.25;;;59.55;;
76405;SDS011;65234;50.044;19.258;2023-03-01T13:01:55;62.92;;;58.67;;
76405;SDS011;65234;50.044;19.258;2023-03-01T13:04:29;64.67;;;61.10;;
76405;SDS011;65234;50.044;19.258;2023-03-01T13:07:05;64.57;;;60.17;;
76405;SDS011;65234;50.044;19.258;2023-03-01T13:09:44;69.05;;;64.20;;
76405;SDS011;65234;50.044;19.258;2023-03-01T13:17:52;60.22;;;56.13;;
76405;SDS011;65234;50.044;19.258;2023-03-01T13:20:21;66.78;;;62.15;;
76405;SDS011;65234;50.044;19.258;2023-03-01T13:22:59;67.18;;;62.72;;
76405;SDS011;65234;50.044;19.258;2023-03-01T13:25:28;64.07;;;59.97;;
76405;SDS011;65234;50.044;19.258;2023-03-01T13:30:56;66.50;;;61.72;;
76405;SDS011;65234;50.044;19.258;2023-03-01T13:36:11;65.70;;;61.05;;
76405;SDS011;65234;50.044;19.258;2023-03-01T13:38:57;66.20;;;61.67;;
76405;SDS011;65234;50.044;19.258;2023-03-01T13:44:17;65.80;;;61.85;;
76405;SDS011;65234;50.044;19.258;2023-03-01T13:46:48;67.83;;;62.67;;
76405;SDS011;65234;50.044;19.258;2023-03-01T13:49:16;64.05;;;59.92;;
76405;SDS011;65234;50.044;19.258;2023-03-01T13:51:45;67.97;;;63.42;;
76405;SDS011;65234;50.044;19.258;2023-03-01T13:54:12;63.65;;;59.47;;
76405;SDS011;65234;50.044;19.258;2023-03-01T13:56:40;63.80;;;59.80;;
76405;SDS011;65234;50.044;19.258;2023-03-01T13:59:12;64.43;;;60.35;;
76405;SDS011;65234;50.044;19.258;2023-03-01T14:01:41;66.82;;;62.33;;
76405;SDS011;65234;50.044;19.258;2023-03-01T14:04:18;64.28;;;59.38;;
76405;SDS011;65234;50.044;19.258;2023-03-01T14:06:46;65.35;;;60.92;;
76405;SDS011;65234;50.044;19.258;2023-03-01T14:09:14;64.95;;;60.30;;
76405;SDS011;65234;50.044;19.258;2023-03-01T14:11:49;65.13;;;60.60;;
76405;SDS011;65234;50.044;19.258;2023-03-01T14:14:34;62.03;;;58.05;;
76405;SDS011;65234;50.044;19.258;2023-03-01T14:17:16;64.13;;;59.78;;
76405;SDS011;65234;50.044;19.258;2023-03-01T14:20:07;65.38;;;60.85;;
76405;SDS011;65234;50.044;19.258;2023-03-01T14:22:38;66.50;;;62.22;;
76405;SDS011;65234;50.044;19.258;2023-03-01T14:25:16;65.28;;;60.60;;
76405;SDS011;65234;50.044;19.258;2023-03-01T14:27:45;63.83;;;59.95;;
76405;SDS011;65234;50.044;19.258;2023-03-01T14:30:20;65.93;;;61.00;;
76405;SDS011;65234;50.044;19.258;2023-03-01T14:32:52;67.10;;;62.38;;
76405;SDS011;65234;50.044;19.258;2023-03-01T14:35:20;62.40;;;58.25;;
76405;SDS011;65234;50.044;19.258;2023-03-01T14:37:48;66.47;;;62.45;;
76405;SDS011;65234;50.044;19.258;2023-03-01T14:40:21;65.43;;;61.33;;
76405;SDS011;65234;50.044;19.258;2023-03-01T14:42:49;65.32;;;60.95;;